TimeAKST,TemperatureF,Dew PointF,Humidity,Sea Level PressureIn,VisibilityMPH,Wind Direction,Wind SpeedMPH,Gust SpeedMPH,PrecipitationIn,Events,Conditions,WindDirDegrees,DateUTC
12:13 AM,24.8,21.2,86,29.68,2.0,Calm,Calm,-,0.01,Snow,Light Snow,0,2011-11-15 09:13:00
12:24 AM,24.8,21.2,86,29.68,5.0,Variable,3.5,-,0.01,Snow,Light Snow,0,2011-11-15 09:24:00
12:53 AM,25.0,19.9,81,29.69,10.0,North,3.5,-,0.01,,Overcast,350,2011-11-15 09:53:00
1:53 AM,25.0,19.0,78,29.69,10.0,Calm,Calm,-,N/A,,Overcast,0,2011-11-15 10:53:00
2:53 AM,26.1,19.9,78,29.70,7.0,Variable,3.5,-,0.00,Snow,Light Snow,0,2011-11-15 11:53:00
3:06 AM,24.8,19.4,80,29.70,2.5,Variable,3.5,-,0.00,Snow,Light Snow,0,2011-11-15 12:06:00
3:14 AM,24.8,19.4,80,29.70,3.0,Variable,3.5,-,0.00,Snow,Light Snow,0,2011-11-15 12:14:00
3:26 AM,24.8,21.2,86,29.70,4.0,Variable,3.5,-,0.00,Snow,Light Snow,0,2011-11-15 12:26:00
3:38 AM,24.8,21.2,86,29.71,1.8,Calm,Calm,-,0.00,Snow,Light Snow,0,2011-11-15 12:38:00
3:53 AM,24.1,21.0,88,29.72,2.0,Variable,3.5,-,0.00,Snow,Light Snow,0,2011-11-15 12:53:00
3:56 AM,24.8,21.2,86,29.72,3.0,Calm,Calm,-,0.00,Snow,Light Snow,0,2011-11-15 12:56:00
4:53 AM,24.1,19.9,84,29.73,10.0,Calm,Calm,-,0.00,,Overcast,0,2011-11-15 13:53:00
5:53 AM,21.0,19.9,96,29.76,10.0,Calm,Calm,-,N/A,,Clear,0,2011-11-15 14:53:00
7:53 AM,16.0,15.1,96,29.81,10.0,NE,3.5,-,N/A,,Clear,40,2011-11-15 16:53:00
8:53 AM,17.1,15.1,92,29.82,10.0,ENE,3.5,-,N/A,,Scattered Clouds,60,2011-11-15 17:53:00
9:53 AM,21.0,18.0,88,29.83,10.0,Calm,Calm,-,N/A,,Partly Cloudy,0,2011-11-15 18:53:00
10:53 AM,21.9,16.0,78,29.84,10.0,Calm,Calm,-,N/A,,Partly Cloudy,0,2011-11-15 19:53:00
11:53 AM,21.9,17.1,82,29.84,10.0,NNE,3.5,-,N/A,,Mostly Cloudy,30,2011-11-15 20:53:00
12:53 PM,25.0,18.0,75,29.85,10.0,Calm,Calm,-,N/A,,Overcast,0,2011-11-15 21:53:00
1:53 PM,25.0,18.0,75,29.86,10.0,Calm,Calm,-,N/A,,Overcast,0,2011-11-15 22:53:00
2:53 PM,25.0,19.9,81,29.86,10.0,Calm,Calm,-,N/A,,Overcast,0,2011-11-15 23:53:00
3:53 PM,25.0,19.0,78,29.85,10.0,Calm,Calm,-,N/A,,Overcast,0,2011-11-16 00:53:00
4:40 PM,24.8,21.2,86,29.84,2.5,Calm,Calm,-,0.00,Snow,Light Snow,0,2011-11-16 01:40:00
4:50 PM,24.8,21.2,86,29.84,2.0,Calm,Calm,-,0.00,Snow,Light Snow,0,2011-11-16 01:50:00
4:53 PM,25.0,21.0,85,29.84,2.0,Calm,Calm,-,0.00,Snow,Light Snow,0,2011-11-16 01:53:00
5:20 PM,24.8,21.2,86,29.83,2.5,Calm,Calm,-,0.00,Snow,Light Snow,0,2011-11-16 02:20:00
5:27 PM,24.8,21.2,86,29.83,3.0,Calm,Calm,-,0.00,Snow,Light Snow,0,2011-11-16 02:27:00
5:53 PM,24.1,21.9,91,29.83,3.0,Calm,Calm,-,0.00,Snow,Light Snow,0,2011-11-16 02:53:00
6:30 PM,24.8,21.2,86,29.82,5.0,Calm,Calm,-,0.00,Snow,Light Snow,0,2011-11-16 03:30:00
6:53 PM,25.0,21.9,88,29.81,4.0,Calm,Calm,-,0.00,Snow,Light Snow,0,2011-11-16 03:53:00
7:53 PM,24.1,21.0,88,29.80,7.0,Variable,3.5,-,0.00,Snow,Light Snow,0,2011-11-16 04:53:00
8:38 PM,24.8,19.4,80,29.79,2.5,Variable,3.5,-,0.00,Snow,Light Snow,0,2011-11-16 05:38:00
8:53 PM,23.0,19.9,88,29.79,2.5,Variable,3.5,-,0.00,Snow,Light Snow,0,2011-11-16 05:53:00
9:19 PM,23.0,19.4,86,29.78,1.5,NNE,4.6,-,0.00,Snow,Light Snow,30,2011-11-16 06:19:00
9:30 PM,23.0,19.4,86,29.78,2.5,WNW,9.2,-,0.00,Snow,Light Snow,300,2011-11-16 06:30:00
9:51 PM,23.0,19.4,86,29.77,2.5,Calm,Calm,-,0.00,Snow,Light Snow,0,2011-11-16 06:51:00
9:53 PM,23.0,19.9,88,29.77,2.5,Variable,4.6,-,0.00,Snow,Light Snow,0,2011-11-16 06:53:00
10:12 PM,23.0,19.4,86,29.76,1.8,Calm,Calm,-,0.00,Snow,Light Snow,0,2011-11-16 07:12:00
10:19 PM,23.0,19.4,86,29.76,2.5,Calm,Calm,-,0.00,Snow,Light Snow,0,2011-11-16 07:19:00
10:26 PM,23.0,19.4,86,29.76,1.8,Variable,4.6,-,0.01,Snow,Light Snow,0,2011-11-16 07:26:00
10:53 PM,21.9,19.9,92,29.75,1.5,NE,6.9,-,0.01,Snow,Light Snow,50,2011-11-16 07:53:00
11:07 PM,21.2,19.4,93,29.75,1.2,Variable,4.6,-,0.01,Snow,Light Snow,0,2011-11-16 08:07:00
11:39 PM,21.2,19.4,93,29.73,2.0,Variable,4.6,-,0.02,Snow,Light Snow,0,2011-11-16 08:39:00
11:49 PM,21.2,19.4,93,29.72,1.5,NNW,8.1,-,0.02,Snow,Light Snow,330,2011-11-16 08:49:00
11:53 PM,21.9,19.0,89,29.73,1.8,Variable,4.6,-,0.02,Snow,Light Snow,0,2011-11-16 08:53:00